WetterOnline ( https://www.wetteronline.de )

Wetter aktuell Traunstein

Aktuelles Wetter: Chieming (553m)

6-stündlich | Neueste Meldungen
Ortszeit Temperatur Wetter
Mo, 10.08. 8:00 18.0° C wolkenlos
Mo, 10.08. 2:00 15.8° C wolkenlos
So, 09.08. 20:00 25.4° C wolkenlos
So, 09.08. 14:00 27.9° C wolkenlos
So, 09.08. 8:00 18.7° C wolkenlos
So, 09.08. 2:00 16.8° C wolkenlos
Sa, 08.08. 20:00 26.9° C wolkenlos
Sa, 08.08. 14:00 25.7° C wolkenlos
Ortszeit Temperatur Wetter
Mo, 10.08. 12:30 24.7° C leicht bewölkt
Mo, 10.08. 12:20 24.7° C leicht bewölkt
Mo, 10.08. 12:10 24.4° C fast wolkenlos
Mo, 10.08. 12:00 24.3° C wolkenlos
Mo, 10.08. 11:50 24.3° C wolkenlos
Mo, 10.08. 11:40 23.5° C fast wolkenlos
Mo, 10.08. 11:30 23.4° C fast wolkenlos
Mo, 10.08. 11:00 23.0° C wolkenlos
Mo, 10.08. 10:30 22.0° C fast wolkenlos
Mo, 10.08. 10:00 22.0° C wolkenlos
Mo, 10.08. 9:30 21.3° C wolkenlos
Ortszeit Relative Feuchte Sichtweite
Mo, 10.08. 8:00 79% 35 km
Mo, 10.08. 2:00 82% 30 km
So, 09.08. 20:00 52% 45 km
So, 09.08. 14:00 50% 55 km
So, 09.08. 8:00 83% 29 km
So, 09.08. 2:00 90% 25 km
Sa, 08.08. 20:00 54% 45 km
Sa, 08.08. 14:00 52% 35 km
Ortszeit Relative Feuchte Sichtweite
Mo, 10.08. 12:30 68% 40 km
Mo, 10.08. 12:20 68% -
Mo, 10.08. 12:10 62% -
Mo, 10.08. 12:00 65% 50 km
Mo, 10.08. 11:50 65% -
Mo, 10.08. 11:40 64% -
Mo, 10.08. 11:30 64% 40 km
Mo, 10.08. 11:00 66% 40 km
Mo, 10.08. 10:30 70% 40 km
Mo, 10.08. 10:00 68% 40 km
Mo, 10.08. 9:30 70% 40 km
Ortszeit Niederschlagsmenge Niederschlagsart
Mo, 10.08. 8:00 0.0 l/m2 in 12 Std. -
Mo, 10.08. 2:00 0.0 l/m2 in 6 Std. -
So, 09.08. 20:00 0.0 l/m2 in 12 Std. -
So, 09.08. 14:00 0.0 l/m2 in 6 Std. -
So, 09.08. 8:00 0.0 l/m2 in 12 Std. -
So, 09.08. 2:00 0.0 l/m2 in 6 Std. -
Sa, 08.08. 20:00 0.0 l/m2 in 12 Std. -
Sa, 08.08. 14:00 0.0 l/m2 in 6 Std. -
Ortszeit Niederschlagsmenge Niederschlagsart
Mo, 10.08. 12:30 0.0 l/m2 in 1 Std. -
Mo, 10.08. 12:20 keine Meldung -
Mo, 10.08. 12:10 keine Meldung -
Mo, 10.08. 12:00 0.0 l/m2 in 1 Std. -
Mo, 10.08. 11:50 keine Meldung -
Mo, 10.08. 11:40 keine Meldung -
Mo, 10.08. 11:30 0.0 l/m2 in 1 Std. -
Mo, 10.08. 11:00 0.0 l/m2 in 1 Std. -
Mo, 10.08. 10:30 0.0 l/m2 in 1 Std. -
Mo, 10.08. 10:00 0.0 l/m2 in 1 Std. -
Mo, 10.08. 9:30 0.0 l/m2 in 1 Std. -
Ortszeit Stärke Spitze Richtung
km/h Bft. km/h Grad Sektor
Mo, 10.08. 8:00 0 0 14 - -
Mo, 10.08. 2:00 7 2 11 70° O
So, 09.08. 20:00 7 2 25 90° O
So, 09.08. 14:00 15 3 22 60° NO
So, 09.08. 8:00 4 1 11 60° NO
So, 09.08. 2:00 7 2 11 70° O
Sa, 08.08. 20:00 4 1 22 70° O
Sa, 08.08. 14:00 9 2 13 260° W
Ortszeit Stärke Spitze Richtung
km/h Bft. km/h Grad Sektor
Mo, 10.08. 12:30 11 2 14 280° W
Mo, 10.08. 12:20 11 2 - 280° W
Mo, 10.08. 12:10 9 2 - 260° W
Mo, 10.08. 12:00 7 2 11 280° W
Mo, 10.08. 11:50 7 2 - 280° W
Mo, 10.08. 11:40 9 2 - 280° W
Mo, 10.08. 11:30 7 2 11 280° W
Mo, 10.08. 11:00 6 1 9 290° W
Mo, 10.08. 10:30 7 2 11 280° W
Mo, 10.08. 10:00 4 1 11 290° W
Mo, 10.08. 9:30 4 1 7 260° W
Ortszeit Untergrenze Bedeckung Gattung
total tief tief mittel hoch
Mo, 10.08. 8:00 - 0/8 0/8 - - -
Mo, 10.08. 2:00 - 0/8 0/8 - - -
So, 09.08. 20:00 - 0/8 0/8 - - -
So, 09.08. 14:00 - 0/8 0/8 - - -
So, 09.08. 8:00 - 0/8 0/8 - - -
So, 09.08. 2:00 - 0/8 0/8 - - -
Sa, 08.08. 20:00 - 0/8 0/8 - - -
Sa, 08.08. 14:00 - 0/8 0/8 - - -
Ortszeit Bedeckungsgrad in Achtel und Wolkenuntergrenze
Mo, 10.08. 12:30 4(10500m)
Mo, 10.08. 12:20 4(10500m)
Mo, 10.08. 12:10 1(10500m)
Mo, 10.08. 12:00 keine Wolken
Mo, 10.08. 11:50 keine Wolken
Mo, 10.08. 11:40 1(10500m)
Mo, 10.08. 11:30 2(10500m)
Mo, 10.08. 11:00 3(10500m)
Mo, 10.08. 10:30 1(10500m)
Mo, 10.08. 10:00 keine Wolken
Mo, 10.08. 9:30 keine Wolken
Ortszeit Luftdruck NN (hPa) Tendenz (hPa in 3 Std.)
Mo, 10.08. 8:00 1016 + 0,5
Mo, 10.08. 2:00 1017 - 0,6
So, 09.08. 20:00 1015 - 0,9
So, 09.08. 14:00 1016 - 1,1
So, 09.08. 8:00 1019 + 0,7
So, 09.08. 2:00 1020 - 0,4
Sa, 08.08. 20:00 1017 - 0,2
Sa, 08.08. 14:00 1019 - 0,8
Ortszeit Luftdruck NN (hPa) Tendenz (hPa in 3 Std.)
Mo, 10.08. 12:30 1014 - 0,5
Mo, 10.08. 12:20 1014 keine Meldung
Mo, 10.08. 12:10 1014 keine Meldung
Mo, 10.08. 12:00 1014 - 0,6
Mo, 10.08. 11:50 1014 keine Meldung
Mo, 10.08. 11:40 1014 keine Meldung
Mo, 10.08. 11:30 1014 - 0,4
Mo, 10.08. 11:00 1014 - 0,3
Mo, 10.08. 10:30 1015 0,0
Mo, 10.08. 10:00 1015 + 0,2
Mo, 10.08. 9:30 1015 + 0,4
Ortszeit Schneehöhe (cm)
Mo, 10.08. 8:00 -
Mo, 10.08. 2:00 -
So, 09.08. 20:00 -
So, 09.08. 14:00 -
So, 09.08. 8:00 -
So, 09.08. 2:00 -
Sa, 08.08. 20:00 -
Sa, 08.08. 14:00 -
Ortszeit Schneehöhe (cm)
Mo, 10.08. 12:30 -
Mo, 10.08. 12:20 -
Mo, 10.08. 12:10 -
Mo, 10.08. 12:00 -
Mo, 10.08. 11:50 -
Mo, 10.08. 11:40 -
Mo, 10.08. 11:30 -
Mo, 10.08. 11:00 -
Mo, 10.08. 10:30 -
Mo, 10.08. 10:00 -
Mo, 10.08. 9:30 -
Link zu dieser Seite / Seite empfehlen

Das Wetter in ...